createdAt,value
2023-02-07T00:01:24.965Z,40.92
2023-02-07T00:03:52.297Z,34.55
2023-02-07T00:06:31.059Z,35.03
2023-02-07T00:09:00.758Z,35.10
2023-02-07T00:11:28.106Z,29.75
2023-02-07T00:13:56.644Z,29.25
2023-02-07T00:16:26.113Z,32.33
2023-02-07T00:18:53.509Z,29.15
2023-02-07T00:21:23.262Z,30.92
2023-02-07T00:23:50.715Z,36.08
2023-02-07T00:26:19.640Z,37.20
2023-02-07T00:28:49.024Z,36.58
2023-02-07T00:31:22.805Z,33.17
2023-02-07T00:33:51.328Z,50.90
2023-02-07T00:36:21.207Z,43.70
2023-02-07T00:38:48.882Z,41.45
2023-02-07T00:41:18.661Z,43.67
2023-02-07T00:43:46.783Z,33.97
2023-02-07T00:48:40.238Z,35.83
2023-02-07T00:51:09.905Z,33.03
2023-02-07T00:56:03.574Z,38.27
2023-02-07T00:58:30.374Z,34.50
2023-02-07T01:00:57.365Z,43.00
2023-02-07T01:03:24.427Z,30.70
2023-02-07T01:05:51.440Z,42.90
2023-02-07T01:08:18.136Z,37.90
2023-02-07T01:10:45.831Z,28.27
2023-02-07T01:13:14.348Z,37.83
2023-02-07T01:15:43.341Z,44.03
2023-02-07T01:18:10.446Z,33.65
2023-02-07T01:20:37.462Z,39.08
2023-02-07T01:23:05.637Z,35.42
2023-02-07T01:25:32.777Z,35.35
2023-02-07T01:27:59.603Z,32.63
2023-02-07T01:30:26.611Z,33.70
2023-02-07T01:32:53.348Z,28.60
2023-02-07T01:35:20.339Z,37.10
2023-02-07T01:37:47.182Z,35.27
2023-02-07T01:40:14.294Z,39.53
2023-02-07T01:42:41.234Z,37.10
2023-02-07T01:45:22.727Z,31.15
2023-02-07T01:47:51.646Z,37.67
2023-02-07T01:50:18.640Z,31.83
2023-02-07T01:52:45.876Z,35.27
2023-02-07T01:55:22.938Z,36.22
2023-02-07T01:57:49.855Z,30.92
2023-02-07T02:00:17.939Z,39.63
2023-02-07T02:02:46.042Z,31.10
2023-02-07T02:05:14.316Z,41.50
2023-02-07T02:07:41.735Z,40.42
2023-02-07T02:10:16.981Z,35.75
2023-02-07T02:12:52.695Z,45.10
2023-02-07T02:15:31.772Z,39.15
2023-02-07T02:18:11.140Z,40.63
2023-02-07T02:21:07.110Z,46.45
2023-02-07T02:24:09.243Z,52.13
2023-02-07T02:26:53.682Z,42.67
2023-02-07T02:29:42.188Z,46.65
2023-02-07T02:32:25.604Z,48.15
2023-02-07T02:35:26.486Z,49.15
2023-02-07T02:38:09.905Z,52.67
2023-02-07T02:40:50.811Z,48.65
2023-02-07T02:43:35.953Z,43.50
2023-02-07T02:46:21.058Z,48.33
2023-02-07T02:48:49.324Z,85.82
2023-02-07T02:53:56.775Z,110.00
2023-02-07T02:57:16.321Z,107.40
2023-02-07T03:00:10.900Z,141.02
2023-02-07T03:02:43.622Z,121.15
2023-02-07T03:05:40.891Z,120.35
2023-02-07T03:08:32.945Z,113.78
2023-02-07T03:11:06.177Z,111.40
2023-02-07T03:13:54.186Z,139.85
2023-02-07T03:16:49.163Z,119.78
2023-02-07T03:19:25.034Z,70.57
2023-02-07T03:22:13.852Z,81.45
2023-02-07T03:24:51.611Z,62.80
2023-02-07T03:27:21.485Z,48.22
2023-02-07T03:29:52.417Z,56.50
2023-02-07T03:32:20.537Z,67.00
2023-02-07T03:34:55.364Z,51.50
2023-02-07T03:37:38.673Z,51.17
2023-02-07T03:40:07.145Z,55.63
2023-02-07T03:42:40.061Z,49.53
2023-02-07T03:45:12.544Z,54.88
2023-02-07T03:47:39.424Z,69.68
2023-02-07T03:50:06.467Z,49.83
2023-02-07T03:52:33.285Z,76.80
2023-02-07T03:54:59.944Z,102.35
2023-02-07T03:57:26.603Z,73.82
2023-02-07T03:59:53.541Z,132.98
2023-02-07T04:02:20.553Z,67.32
2023-02-07T04:04:47.229Z,54.30
2023-02-07T04:07:14.094Z,74.90
2023-02-07T04:09:40.868Z,71.95
2023-02-07T04:12:07.820Z,69.72
2023-02-07T04:17:02.091Z,36.50
2023-02-07T04:19:28.764Z,52.78
2023-02-07T04:21:55.548Z,42.40
2023-02-07T04:24:22.215Z,38.58
2023-02-07T04:26:48.891Z,43.83
2023-02-07T04:29:15.625Z,37.10
2023-02-07T04:31:42.632Z,30.08
2023-02-07T04:34:09.803Z,37.92
2023-02-07T04:36:36.656Z,37.90
2023-02-07T04:39:03.433Z,46.47
2023-02-07T04:41:30.150Z,42.58
2023-02-07T04:43:57.119Z,37.20
2023-02-07T04:46:23.976Z,36.03
2023-02-07T04:48:50.659Z,32.17
2023-02-07T04:51:17.340Z,34.40
2023-02-07T04:53:44.005Z,35.50
2023-02-07T04:56:10.769Z,33.90
2023-02-07T04:58:37.732Z,33.50
2023-02-07T05:01:04.438Z,35.90
2023-02-07T05:03:31.235Z,32.95
2023-02-07T05:05:57.979Z,34.47
2023-02-07T05:08:26.279Z,33.70
2023-02-07T05:10:54.746Z,38.92
2023-02-07T05:13:22.374Z,33.78
2023-02-07T05:15:49.439Z,43.25
2023-02-07T05:18:16.570Z,43.60
2023-02-07T05:20:43.559Z,41.65
2023-02-07T05:23:10.464Z,54.43
2023-02-07T05:25:37.492Z,38.78
2023-02-07T05:28:04.572Z,37.30
2023-02-07T05:30:31.364Z,42.93
2023-02-07T05:33:06.911Z,34.83
2023-02-07T05:35:36.631Z,31.60
2023-02-07T05:38:07.509Z,36.10
2023-02-07T05:40:38.598Z,35.35
2023-02-07T05:43:06.196Z,46.38
2023-02-07T05:45:33.546Z,41.67
2023-02-07T05:48:00.290Z,37.08
2023-02-07T05:50:27.471Z,34.30
2023-02-07T05:55:31.999Z,33.13
2023-02-07T05:57:58.758Z,35.15
2023-02-07T06:00:26.229Z,32.95
2023-02-07T06:02:53.123Z,35.47
2023-02-07T06:05:20.518Z,39.60
2023-02-07T06:07:47.749Z,37.00
2023-02-07T06:10:15.384Z,34.65
2023-02-07T06:12:42.695Z,33.35
2023-02-07T06:15:09.903Z,38.45
2023-02-07T06:17:36.579Z,40.05
2023-02-07T06:20:04.020Z,36.67
2023-02-07T06:22:30.763Z,35.92
2023-02-07T06:24:57.470Z,36.08
2023-02-07T06:27:24.179Z,33.63
2023-02-07T06:29:50.868Z,32.88
2023-02-07T06:32:17.628Z,35.00
2023-02-07T06:34:44.435Z,34.60
2023-02-07T06:37:11.158Z,35.75
2023-02-07T06:39:37.859Z,34.35
2023-02-07T06:42:06.064Z,31.60
2023-02-07T06:44:32.817Z,34.67
2023-02-07T06:46:59.473Z,37.05
2023-02-07T06:49:26.228Z,35.60
2023-02-07T06:51:52.894Z,35.88
2023-02-07T06:54:19.675Z,41.40
2023-02-07T06:56:46.401Z,33.58
2023-02-07T06:59:13.095Z,35.22
2023-02-07T07:01:39.891Z,39.63
2023-02-07T07:04:06.630Z,33.65
2023-02-07T07:06:33.411Z,37.83
2023-02-07T07:09:00.100Z,40.40
2023-02-07T07:11:26.777Z,35.33
2023-02-07T07:13:53.459Z,36.63
2023-02-07T07:16:20.309Z,42.40
2023-02-07T07:18:47.105Z,46.83
2023-02-07T07:21:13.982Z,51.15
2023-02-07T07:23:40.765Z,50.17
2023-02-07T07:26:08.006Z,44.55
2023-02-07T07:28:34.784Z,45.08
2023-02-07T07:31:07.549Z,42.63
2023-02-07T07:33:34.955Z,45.17
2023-02-07T07:36:01.899Z,46.53
2023-02-07T07:38:29.122Z,42.75
2023-02-07T07:40:55.956Z,42.50
2023-02-07T07:43:22.749Z,42.67
2023-02-07T07:45:57.375Z,47.40
2023-02-07T07:48:25.272Z,44.20
2023-02-07T07:53:20.304Z,43.03
2023-02-07T07:55:55.092Z,48.72
2023-02-07T07:58:23.528Z,46.30
2023-02-07T08:00:50.529Z,54.22
2023-02-07T08:03:19.279Z,53.00
2023-02-07T08:05:46.967Z,60.40
2023-02-07T08:08:14.145Z,58.33
2023-02-07T08:10:41.385Z,58.20
2023-02-07T08:13:08.607Z,43.13
2023-02-07T08:15:35.697Z,41.88
2023-02-07T08:18:02.662Z,40.13
2023-02-07T08:20:29.397Z,41.07
2023-02-07T08:22:57.591Z,37.03
2023-02-07T08:25:25.416Z,36.50
2023-02-07T08:27:52.338Z,36.40
2023-02-07T08:30:19.445Z,36.87
2023-02-07T08:32:46.194Z,35.45
2023-02-07T08:35:13.040Z,31.73
2023-02-07T08:37:39.749Z,38.10
2023-02-07T08:40:08.702Z,34.92
2023-02-07T08:42:35.416Z,40.88
2023-02-07T08:45:02.318Z,42.42
2023-02-07T08:47:29.049Z,36.63
2023-02-07T08:49:55.822Z,33.50
2023-02-07T08:52:23.008Z,32.75
2023-02-07T08:54:49.939Z,37.58
2023-02-07T08:57:17.251Z,69.80
2023-02-07T08:59:43.950Z,38.58
2023-02-07T09:02:12.153Z,41.10
2023-02-07T09:04:41.552Z,31.92
2023-02-07T09:07:08.912Z,35.78
2023-02-07T09:09:36.080Z,32.03
2023-02-07T09:12:03.067Z,25.92
2023-02-07T09:14:29.891Z,29.80
2023-02-07T09:16:56.662Z,34.22
2023-02-07T09:19:23.399Z,35.17
2023-02-07T09:21:50.104Z,23.25
2023-02-07T09:24:16.932Z,29.30
2023-02-07T09:26:43.756Z,27.60
2023-02-07T09:29:15.160Z,26.52
2023-02-07T09:31:43.252Z,27.45
2023-02-07T09:34:10.116Z,26.42
2023-02-07T09:36:37.124Z,25.58
2023-02-07T09:39:05.490Z,33.03
2023-02-07T09:41:32.132Z,27.17
2023-02-07T09:44:07.946Z,29.17
2023-02-07T09:46:45.216Z,30.35
2023-02-07T09:49:33.628Z,28.67
2023-02-07T09:52:02.208Z,25.45
2023-02-07T09:54:35.813Z,22.75
2023-02-07T09:57:08.361Z,23.15
2023-02-07T10:00:10.112Z,21.15
2023-02-07T10:02:51.427Z,22.55
2023-02-07T10:05:27.366Z,24.17
2023-02-07T10:07:54.188Z,25.92
2023-02-07T10:10:42.962Z,30.88
2023-02-07T10:13:33.300Z,27.70
2023-02-07T10:16:24.568Z,28.65
2023-02-07T10:19:01.125Z,29.30
2023-02-07T10:21:37.093Z,30.33
2023-02-07T10:24:03.734Z,29.20
2023-02-07T10:26:41.325Z,29.48
2023-02-07T10:29:26.158Z,25.02
2023-02-07T10:31:55.889Z,22.90
2023-02-07T10:34:27.953Z,21.20
2023-02-07T10:36:57.693Z,18.58
2023-02-07T10:39:34.488Z,15.90
2023-02-07T10:42:01.231Z,16.75
2023-02-07T10:44:30.980Z,18.77
2023-02-07T10:47:02.089Z,14.55
2023-02-07T10:49:33.781Z,15.05
2023-02-07T10:52:12.906Z,14.10
2023-02-07T10:54:57.960Z,10.95
2023-02-07T10:57:26.263Z,10.95
2023-02-07T11:00:23.306Z,9.45
2023-02-07T11:03:03.386Z,11.50
2023-02-07T11:05:33.619Z,6.65
2023-02-07T11:08:14.273Z,8.82
2023-02-07T11:10:43.472Z,10.88
2023-02-07T11:13:15.949Z,12.55
2023-02-07T11:16:16.440Z,10.88
2023-02-07T11:18:53.970Z,10.70
2023-02-07T11:21:23.722Z,8.60
2023-02-07T11:23:52.289Z,8.27
2023-02-07T11:26:22.168Z,8.02
2023-02-07T11:29:07.601Z,7.63
2023-02-07T11:31:37.033Z,7.10
2023-02-07T11:34:11.311Z,7.05
2023-02-07T11:36:39.084Z,7.50
2023-02-07T11:39:18.240Z,7.05
2023-02-07T11:41:59.030Z,9.95
2023-02-07T11:44:29.674Z,8.90
2023-02-07T11:47:04.795Z,10.88
2023-02-07T11:49:37.538Z,9.52
2023-02-07T11:52:04.939Z,8.55
2023-02-07T11:54:33.804Z,8.90
2023-02-07T11:57:07.343Z,7.18
2023-02-07T11:59:34.758Z,6.68
2023-02-07T12:02:15.774Z,9.50
2023-02-07T12:04:42.982Z,7.70
2023-02-07T12:07:17.030Z,7.28
2023-02-07T12:09:47.592Z,8.38
2023-02-07T12:12:41.463Z,8.40
2023-02-07T12:15:28.278Z,5.38
2023-02-07T12:18:03.823Z,5.75
2023-02-07T12:20:36.848Z,6.90
2023-02-07T12:23:41.144Z,6.68
2023-02-07T12:26:47.764Z,7.75
2023-02-07T12:29:45.055Z,8.82
2023-02-07T12:32:27.452Z,8.05
2023-02-07T12:35:03.661Z,6.65
2023-02-07T12:37:36.067Z,8.90
2023-02-07T12:40:10.001Z,8.32
2023-02-07T12:42:47.771Z,8.55
2023-02-07T12:47:52.367Z,5.85
2023-02-07T12:51:26.680Z,10.07
2023-02-07T12:54:21.398Z,6.22
2023-02-07T12:57:04.668Z,7.05
2023-02-07T13:00:03.954Z,10.68
2023-02-07T13:02:34.803Z,6.28
2023-02-07T13:05:19.635Z,9.00
2023-02-07T13:07:58.175Z,7.22
2023-02-07T13:10:45.985Z,7.45
2023-02-07T13:13:24.931Z,6.53
2023-02-07T13:15:57.795Z,7.22
2023-02-07T13:18:41.263Z,11.88
2023-02-07T13:21:23.830Z,10.40
2023-02-07T13:23:50.891Z,9.70
2023-02-07T13:26:21.069Z,7.35
2023-02-07T13:29:12.356Z,5.93
2023-02-07T13:32:15.454Z,6.65
2023-02-07T13:34:50.210Z,6.22
2023-02-07T13:37:17.879Z,8.30
2023-02-07T13:40:20.037Z,5.57
2023-02-07T13:42:59.965Z,7.38
2023-02-07T13:46:05.367Z,9.40
2023-02-07T13:48:42.630Z,7.50
2023-02-07T13:51:36.524Z,5.68
2023-02-07T13:54:24.295Z,7.43
2023-02-07T13:57:15.858Z,5.30
2023-02-07T13:59:43.093Z,6.35
2023-02-07T14:02:20.262Z,5.60
2023-02-07T14:04:56.397Z,5.38
2023-02-07T14:07:29.902Z,6.20
2023-02-07T14:09:59.053Z,6.07
2023-02-07T14:12:35.508Z,5.40
2023-02-07T14:15:20.227Z,6.72
2023-02-07T14:18:27.243Z,7.93
2023-02-07T14:21:21.446Z,9.52
2023-02-07T14:24:10.064Z,12.50
2023-02-07T14:26:39.774Z,7.18
2023-02-07T14:29:24.487Z,6.80
2023-02-07T14:31:56.310Z,6.25
2023-02-07T14:34:28.322Z,5.80
2023-02-07T14:36:55.070Z,6.57
2023-02-07T14:39:33.481Z,9.82
2023-02-07T14:42:13.016Z,6.45
2023-02-07T14:44:43.224Z,8.00
2023-02-07T14:47:22.156Z,6.95
2023-02-07T14:49:51.516Z,4.72
2023-02-07T14:52:28.941Z,7.43
2023-02-07T14:55:08.844Z,5.95
2023-02-07T14:57:38.331Z,5.85
2023-02-07T15:00:14.329Z,6.35
2023-02-07T15:02:55.119Z,4.32
2023-02-07T15:05:27.728Z,6.78
2023-02-07T15:08:19.123Z,7.47
2023-02-07T15:10:45.832Z,6.07
2023-02-07T15:13:21.229Z,5.43
2023-02-07T15:15:53.575Z,7.32
2023-02-07T15:18:23.457Z,5.47
2023-02-07T15:20:58.661Z,6.45
2023-02-07T15:23:29.559Z,9.50
2023-02-07T15:25:58.367Z,5.60
2023-02-07T15:28:30.435Z,5.18
2023-02-07T15:31:00.048Z,8.05
2023-02-07T15:33:36.824Z,6.15
2023-02-07T15:36:05.877Z,6.25
2023-02-07T15:38:32.735Z,6.00
2023-02-07T15:40:59.603Z,7.30
2023-02-07T15:43:29.947Z,6.22
2023-02-07T15:46:09.035Z,5.18
2023-02-07T15:48:50.445Z,8.02
2023-02-07T15:51:23.564Z,5.50
2023-02-07T15:53:57.741Z,5.38
2023-02-07T15:56:25.806Z,6.60
2023-02-07T15:58:56.263Z,6.70
2023-02-07T16:01:27.811Z,5.43
2023-02-07T16:03:56.764Z,5.07
2023-02-07T16:06:26.785Z,4.43
2023-02-07T16:08:59.796Z,5.82
2023-02-07T16:11:26.413Z,4.90
2023-02-07T16:13:55.866Z,3.70
2023-02-07T16:16:28.358Z,7.10
2023-02-07T16:19:24.690Z,7.95
2023-02-07T16:22:03.130Z,22.02
2023-02-07T16:24:34.978Z,6.93
2023-02-07T16:27:02.088Z,4.47
2023-02-07T16:29:28.922Z,5.75
2023-02-07T16:31:55.816Z,6.47
2023-02-07T16:34:23.463Z,7.63
2023-02-07T16:36:53.002Z,9.50
2023-02-07T16:39:20.287Z,9.95
2023-02-07T16:41:52.331Z,13.32
2023-02-07T16:44:23.646Z,15.45
2023-02-07T16:46:50.463Z,15.57
2023-02-07T16:49:21.652Z,18.88
2023-02-07T16:51:48.751Z,22.42
2023-02-07T16:54:15.640Z,15.38
2023-02-07T16:56:47.240Z,18.15
2023-02-07T16:59:20.556Z,17.15
2023-02-07T17:01:48.434Z,26.70
2023-02-07T17:06:43.841Z,29.13
2023-02-07T17:09:19.191Z,23.10
2023-02-07T17:11:46.890Z,21.15
2023-02-07T17:14:14.358Z,26.23
2023-02-07T17:16:41.564Z,21.65
2023-02-07T17:19:20.092Z,29.27
2023-02-07T17:21:47.722Z,24.63
2023-02-07T17:24:14.919Z,29.65
2023-02-07T17:26:44.913Z,21.60
2023-02-07T17:29:13.375Z,22.83
2023-02-07T17:31:40.898Z,29.25
2023-02-07T17:34:07.793Z,29.40
2023-02-07T17:36:35.419Z,31.88
2023-02-07T17:39:02.927Z,31.88
2023-02-07T17:41:30.964Z,34.20
2023-02-07T17:43:57.741Z,30.70
2023-02-07T17:46:26.660Z,31.10
2023-02-07T17:48:54.608Z,24.38
2023-02-07T17:53:49.923Z,21.45
2023-02-07T17:56:30.697Z,20.13
2023-02-07T17:59:00.743Z,29.27
2023-02-07T18:01:27.464Z,19.70
2023-02-07T18:03:55.203Z,25.50
2023-02-07T18:06:24.852Z,26.90
2023-02-07T18:08:51.846Z,33.25
2023-02-07T18:11:19.048Z,37.10
2023-02-07T18:13:47.384Z,40.75
2023-02-07T18:16:17.426Z,26.92
2023-02-07T18:18:44.199Z,27.77
2023-02-07T18:21:13.342Z,25.27
2023-02-07T18:23:42.922Z,23.88
2023-02-07T18:26:15.118Z,25.25
2023-02-07T18:28:45.523Z,31.67
2023-02-07T18:31:14.719Z,27.20
2023-02-07T18:33:41.467Z,32.45
2023-02-07T18:36:09.315Z,27.67
2023-02-07T18:38:36.334Z,26.83
2023-02-07T18:41:10.735Z,30.17
2023-02-07T18:43:38.681Z,32.15
2023-02-07T18:48:39.153Z,29.05
2023-02-07T18:51:12.903Z,25.60
2023-02-07T18:53:40.260Z,24.45
2023-02-07T18:56:28.613Z,30.73
2023-02-07T18:58:58.967Z,24.10
2023-02-07T19:01:27.934Z,28.60
2023-02-07T19:03:56.264Z,26.70
2023-02-07T19:06:27.722Z,27.20
2023-02-07T19:08:56.678Z,28.15
2023-02-07T19:11:23.371Z,25.95
2023-02-07T19:13:50.043Z,24.23
2023-02-07T19:16:19.476Z,22.45
2023-02-07T19:18:47.848Z,21.42
2023-02-07T19:21:18.320Z,17.42
2023-02-07T19:23:45.297Z,20.75
2023-02-07T19:26:12.209Z,22.10
2023-02-07T19:28:39.320Z,17.27
2023-02-07T19:31:13.500Z,21.33
2023-02-07T19:33:40.970Z,20.15
2023-02-07T19:36:10.525Z,24.48
2023-02-07T19:38:38.078Z,22.33
2023-02-07T19:41:06.079Z,24.77
2023-02-07T19:43:33.026Z,24.15
2023-02-07T19:45:59.885Z,27.52
2023-02-07T19:48:26.783Z,23.38
2023-02-07T19:51:01.701Z,26.58
2023-02-07T19:53:29.109Z,30.08
2023-02-07T19:56:03.893Z,32.15
2023-02-07T19:58:32.186Z,35.05
2023-02-07T20:00:59.764Z,35.17
2023-02-07T20:03:27.072Z,39.75
2023-02-07T20:05:53.955Z,39.80
2023-02-07T20:08:21.476Z,39.00
2023-02-07T20:10:48.766Z,40.20
2023-02-07T20:13:15.977Z,44.45
2023-02-07T20:15:44.811Z,48.88
2023-02-07T20:18:12.613Z,55.83
2023-02-07T20:20:43.963Z,60.03
2023-02-07T20:23:11.652Z,54.75
2023-02-07T20:25:39.989Z,53.63
2023-02-07T20:28:07.955Z,48.28
2023-02-07T20:33:01.876Z,48.05
2023-02-07T20:35:28.563Z,52.80
2023-02-07T20:37:55.235Z,53.45
2023-02-07T20:40:21.958Z,46.25
2023-02-07T20:42:48.704Z,45.30
2023-02-07T20:45:15.451Z,43.10
2023-02-07T20:47:42.272Z,40.35
2023-02-07T20:50:09.233Z,39.08
2023-02-07T20:52:37.581Z,46.37
2023-02-07T20:55:08.422Z,47.78
2023-02-07T20:57:35.415Z,46.75
2023-02-07T21:00:02.220Z,46.83
2023-02-07T21:02:28.996Z,44.03
2023-02-07T21:04:55.697Z,42.05
2023-02-07T21:07:22.394Z,44.47
2023-02-07T21:09:49.080Z,35.58
2023-02-07T21:12:15.832Z,35.25
2023-02-07T21:14:42.588Z,41.85
2023-02-07T21:17:11.686Z,37.20
2023-02-07T21:19:39.855Z,37.22
2023-02-07T21:22:07.364Z,33.78
2023-02-07T21:24:34.392Z,42.10
2023-02-07T21:27:03.179Z,37.72
2023-02-07T21:29:29.884Z,33.90
2023-02-07T21:31:56.678Z,33.42
2023-02-07T21:34:25.413Z,22.65
2023-02-07T21:36:52.848Z,27.05
2023-02-07T21:39:20.157Z,45.95
2023-02-07T21:41:47.819Z,29.90
2023-02-07T21:44:15.232Z,24.95
2023-02-07T21:46:46.054Z,28.70
2023-02-07T21:49:16.046Z,33.05
2023-02-07T21:51:45.527Z,33.00
2023-02-07T21:54:12.583Z,35.97
2023-02-07T21:56:42.019Z,37.20
2023-02-07T21:59:12.860Z,38.80
2023-02-07T22:01:40.024Z,31.23
2023-02-07T22:04:10.565Z,34.92
2023-02-07T22:06:41.912Z,28.38
2023-02-07T22:09:11.379Z,26.85
2023-02-07T22:11:38.522Z,30.45
2023-02-07T22:14:05.380Z,34.60
2023-02-07T22:16:33.562Z,31.43
2023-02-07T22:19:03.069Z,27.80
2023-02-07T22:21:32.722Z,39.88
2023-02-07T22:23:59.839Z,44.63
2023-02-07T22:26:28.117Z,45.80
2023-02-07T22:28:55.584Z,34.17
2023-02-07T22:31:28.387Z,40.80
2023-02-07T22:33:58.427Z,34.70
2023-02-07T22:36:27.062Z,36.63
2023-02-07T22:38:54.949Z,157.98
2023-02-07T22:43:49.385Z,45.25
2023-02-07T22:46:18.470Z,36.50
2023-02-07T22:48:45.630Z,32.90
2023-02-07T22:51:27.801Z,41.63
2023-02-07T22:53:57.732Z,43.22
2023-02-07T22:56:25.453Z,38.55
2023-02-07T22:58:53.132Z,39.35
2023-02-07T23:01:29.753Z,35.00
2023-02-07T23:03:57.597Z,34.28
2023-02-07T23:06:25.580Z,35.92
2023-02-07T23:08:53.243Z,34.00
2023-02-07T23:11:21.863Z,34.38
2023-02-07T23:13:48.812Z,37.22
2023-02-07T23:16:18.648Z,36.60
2023-02-07T23:18:45.409Z,33.85
2023-02-07T23:21:14.933Z,39.15
2023-02-07T23:23:42.300Z,36.60
2023-02-07T23:26:11.507Z,37.83
2023-02-07T23:28:38.782Z,34.92
2023-02-07T23:31:10.088Z,38.67
2023-02-07T23:33:37.256Z,32.45
2023-02-07T23:36:04.843Z,34.08
2023-02-07T23:38:31.740Z,44.35
2023-02-07T23:40:58.585Z,40.67
2023-02-07T23:43:25.601Z,45.80
2023-02-07T23:45:52.519Z,49.20
2023-02-07T23:48:19.567Z,51.20
2023-02-07T23:50:54.428Z,84.47
2023-02-07T23:53:22.023Z,76.28
2023-02-07T23:55:50.084Z,84.28
